Latest Weather Observations for Perth

IDW60801

Issued at 1:02 pm WST Monday 6 July 2015 (issued every 30 minutes, with the page automatically refreshed every 10 minutes)

About weather observations | Map of weather stations | Latest weather observations for WA | Other Formats
Station Details ID: 009225 Name: PERTH METRO Lat: -31.92 Lon: 115.87 Height: 24.9 m
Data from the previous 72 hours. | See also: Recent months at Perth
Date/Time
WST
Temp
°C
App
Temp
°C
Dew
Point
Rel
Hum
%
Delta-T
°C
Wind Press
QNH
hPa
Press
MSL
hPa
Rain
since 9 am
mm
Dir
 
Spd
km/h
Gust
km/h
Spd
kts
Gust
kts
06/01:00pm 18.7 18.1 13.6 72 2.9 N 9 15 5 8 1020.6 1020.6 0.0
06/12:30pm 19.7 19.1 13.4 67 3.6 NNW 9 17 5 9 1021.0 1021.0 0.0
06/12:00pm 18.1 17.2 13.6 75 2.5 NNE 11 17 6 9 1021.5 1021.5 0.0
06/11:30am 17.8 16.5 13.7 77 2.3 NNE 13 19 7 10 1022.0 1022.0 0.0
06/11:00am 16.7 15.6 13.2 80 2.0 NNE 11 17 6 9 1022.4 1022.4 0.0
06/10:30am 16.5 15.3 12.7 78 2.1 NNE 11 17 6 9 1022.6 1022.6 0.0
06/10:00am 15.0 13.8 12.7 86 1.3 NNE 11 19 6 10 1022.7 1022.7 0.0
06/09:30am 13.1 12.0 12.0 93 0.6 NE 9 13 5 7 1022.7 1022.7 0.0
06/09:00am 12.2 11.1 12.0 99 0.1 NNE 9 13 5 7 1022.6 1022.6 2.6
06/08:30am 11.1 9.7 10.9 99 0.1 NNW 9 13 5 7 1022.3 1022.3 2.6
06/08:00am 10.3 9.2 10.1 99 0.1 W 6 9 3 5 1022.2 1022.2 2.6
06/07:30am 9.6 8.4 9.5 99 0.0 W 6 9 3 5 1022.0 1022.0 2.6
06/07:00am 9.5 8.1 9.4 99 0.0 W 7 9 4 5 1021.8 1021.8 2.6
06/06:30am 9.4 7.9 9.3 99 0.0 W 7 9 4 5 1021.5 1021.5 2.6
06/06:00am 9.4 7.9 9.3 99 0.0 W 7 11 4 6 1021.2 1021.2 2.6
06/05:30am 9.3 8.0 9.2 99 0.0 W 6 6 3 3 1021.3 1021.3 2.6
06/05:00am 9.2 9.0 9.1 99 0.0 CALM 0 0 0 0 1021.3 1021.3 2.6
06/04:30am 9.3 8.8 9.2 99 0.0 W 2 6 1 3 1021.1 1021.1 2.6
06/04:00am 9.6 9.1 9.5 99 0.0 W 2 6 1 3 1021.1 1021.1 2.6
06/03:30am 10.1 8.8 9.9 99 0.1 W 7 9 4 5 1021.1 1021.1 2.6
06/03:00am 10.4 9.4 10.2 99 0.1 W 6 7 3 4 1021.3 1021.3 2.6
06/02:30am 10.6 9.6 10.4 99 0.1 W 6 7 3 4 1021.3 1021.3 2.2
06/02:00am 10.6 10.4 10.4 99 0.1 W 2 6 1 3 1021.4 1021.4 2.2
06/01:30am 10.7 10.9 10.5 99 0.1 CALM 0 0 0 0 1021.6 1021.6 2.2
06/01:00am 11.3 11.7 11.1 99 0.1 CALM 0 2 0 1 1021.6 1021.6 2.2
06/12:30am 11.9 12.1 11.7 99 0.1 W 2 6 1 3 1021.7 1021.7 2.2
06/12:00am 12.4 11.9 12.2 99 0.1 W 6 7 3 4 1021.7 1021.7 2.2
 
Date/Time
WST
Temp
°C
App
Temp
°C
Dew
Point
Rel
Hum
%
Delta-T
°C
Wind Press
QNH
hPa
Press
MSL
hPa
Rain
since 9 am
mm
Dir
 
Spd
km/h
Gust
km/h
Spd
kts
Gust
kts
05/11:30pm 12.7 13.5 12.5 99 0.1 CALM 0 0 0 0 1021.9 1021.9 2.2
05/11:00pm 12.5 13.2 12.3 99 0.1 CALM 0 0 0 0 1022.1 1022.1 2.2
05/10:30pm 12.6 12.6 12.4 99 0.1 W 4 7 2 4 1022.1 1022.1 2.2
05/10:00pm 12.8 13.6 12.6 99 0.1 CALM 0 0 0 0 1022.1 1022.1 2.2
05/09:30pm 12.6 13.0 12.4 99 0.1 W 2 6 1 3 1022.2 1022.2 2.2
05/09:00pm 12.3 13.0 12.1 99 0.1 CALM 0 0 0 0 1022.2 1022.2 2.2
05/08:30pm 13.2 14.1 13.0 99 0.1 CALM 0 0 0 0 1022.2 1022.2 2.2
05/08:00pm 13.0 13.8 12.7 98 0.2 CALM 0 0 0 0 1022.1 1022.1 2.2
05/07:30pm 13.5 14.5 13.2 98 0.2 CALM 0 0 0 0 1021.9 1021.9 2.2
05/07:00pm 14.3 15.5 13.8 97 0.3 CALM 0 0 0 0 1021.7 1021.7 2.2
05/06:30pm 14.9 16.3 14.3 96 0.3 CALM 0 0 0 0 1021.5 1021.5 2.2
05/06:00pm 15.4 16.9 14.6 95 0.5 CALM 0 0 0 0 1021.2 1021.2 2.2
05/05:30pm 15.6 15.9 14.6 94 0.6 W 6 7 3 4 1021.0 1021.0 2.2
05/05:00pm 16.1 17.7 14.8 92 0.7 CALM 0 0 0 0 1021.1 1021.1 2.2
05/04:30pm 16.0 17.6 14.9 93 0.6 CALM 0 0 0 0 1021.0 1021.0 2.2
05/04:00pm 15.7 17.3 14.9 95 0.5 CALM 0 6 0 3 1020.9 1020.9 2.2
05/03:30pm 15.4 15.7 14.4 94 0.6 WSW 6 7 3 4 1020.9 1020.9 2.2
05/03:00pm 16.0 16.5 15.0 94 0.6 WSW 6 9 3 5 1020.7 1020.7 1.6
05/02:30pm 15.8 16.3 15.0 95 0.5 WSW 6 7 3 4 1020.8 1020.8 1.6
05/02:00pm 15.9 15.9 15.1 95 0.5 W 9 17 5 9 1021.0 1021.0 1.0
05/01:30pm 16.7 15.4 14.9 89 1.0 WSW 15 24 8 13 1020.9 1020.9 0.0
05/01:00pm 19.1 18.3 12.8 67 3.5 NW 9 19 5 10 1020.7 1020.7 0.0
05/12:30pm 19.8 19.0 12.8 64 4.0 NW 9 17 5 9 1020.9 1020.9 0.0
05/12:00pm 19.4 19.0 14.0 71 3.1 NNW 9 19 5 10 1021.2 1021.2 0.0
05/11:30am 19.2 18.9 14.5 74 2.7 NNE 9 15 5 8 1021.6 1021.6 0.0
05/11:00am 18.7 18.0 14.4 76 2.5 NNE 11 15 6 8 1021.9 1021.9 0.0
05/10:30am 17.5 16.7 14.0 80 2.0 NNE 11 17 6 9 1022.1 1022.1 0.0
05/10:00am 16.2 15.8 14.0 87 1.2 NNE 9 13 5 7 1022.2 1022.2 0.0
05/09:30am 14.8 14.8 14.2 96 0.3 NNE 7 11 4 6 1022.1 1022.1 0.0
05/09:00am 13.3 12.6 13.1 99 0.1 NNE 9 15 5 8 1022.0 1022.0 1.8
05/08:30am 12.4 11.4 12.2 99 0.1 NNE 9 15 5 8 1022.0 1022.0 1.8
05/08:00am 11.2 11.2 11.0 99 0.1 N 2 7 1 4 1022.0 1022.0 1.8
05/07:30am 10.7 10.1 10.5 99 0.1 N 4 11 2 6 1021.7 1021.7 1.8
05/07:00am 11.0 10.5 10.8 99 0.1 N 4 7 2 4 1021.4 1021.4 1.8
05/06:30am 11.1 11.0 10.9 99 0.1 N 2 7 1 4 1021.2 1021.2 1.6
05/06:00am 11.2 10.8 11.0 99 0.1 NW 4 7 2 4 1021.0 1021.0 1.6
05/05:30am 11.5 11.2 11.3 99 0.1 NW 4 6 2 3 1020.9 1020.9 1.6
05/05:00am 12.0 11.8 11.8 99 0.1 NW 4 7 2 4 1020.7 1020.7 1.6
05/04:30am 12.1 11.9 11.9 99 0.1 NW 4 7 2 4 1020.8 1020.8 1.6
05/04:00am 12.2 12.8 12.0 99 0.1 CALM 0 0 0 0 1020.9 1020.9 1.6
05/03:30am 13.0 13.9 12.8 99 0.1 CALM 0 0 0 0 1021.0 1021.0 1.6
05/03:00am 13.3 14.3 13.1 99 0.1 CALM 0 0 0 0 1021.1 1021.1 1.6
05/02:30am 13.6 13.9 13.4 99 0.1 NW 4 7 2 4 1021.1 1021.1 1.6
05/02:00am 13.7 14.8 13.5 99 0.1 CALM 0 7 0 4 1021.1 1021.1 1.6
05/01:30am 13.7 14.8 13.5 99 0.1 CALM 0 6 0 3 1021.2 1021.2 1.6
05/01:00am 13.7 14.8 13.5 99 0.1 CALM 0 0 0 0 1021.2 1021.2 1.6
05/12:30am 14.0 15.2 13.8 99 0.1 CALM 0 0 0 0 1021.5 1021.5 1.6
05/12:00am 14.3 15.6 14.1 99 0.1 CALM 0 0 0 0 1021.6 1021.6 1.6
 
Date/Time
WST
Temp
°C
App
Temp
°C
Dew
Point
Rel
Hum
%
Delta-T
°C
Wind Press
QNH
hPa
Press
MSL
hPa
Rain
since 9 am
mm
Dir
 
Spd
km/h
Gust
km/h
Spd
kts
Gust
kts
04/11:30pm 14.2 15.5 14.0 99 0.1 CALM 0 0 0 0 1021.7 1021.7 1.6
04/11:00pm 14.1 15.3 13.9 99 0.1 CALM 0 0 0 0 1022.0 1022.0 1.6
04/10:30pm 13.7 14.8 13.5 99 0.1 CALM 0 0 0 0 1021.9 1021.9 1.6
04/10:00pm 13.7 14.8 13.5 99 0.1 CALM 0 0 0 0 1022.0 1022.0 1.6
04/09:30pm 13.9 15.0 13.6 98 0.2 CALM 0 0 0 0 1022.0 1022.0 1.6
04/09:00pm 14.5 15.8 14.0 97 0.3 CALM 0 0 0 0 1022.0 1022.0 1.6
04/08:30pm 15.0 16.0 14.4 96 0.3 WNW 2 7 1 4 1021.9 1021.9 1.6
04/08:00pm 15.2 15.4 14.7 97 0.3 W 7 15 4 8 1022.0 1022.0 1.6
04/07:30pm 14.8 16.2 14.5 98 0.2 CALM 0 0 0 0 1021.6 1021.6 0.8
04/07:00pm 15.0 16.5 14.7 98 0.2 CALM 0 0 0 0 1021.6 1021.6 0.8
04/06:30pm 15.2 16.7 14.6 96 0.3 CALM 0 0 0 0 1021.4 1021.4 0.8
04/06:00pm 15.2 16.3 14.6 96 0.3 N 2 7 1 4 1021.3 1021.3 0.8
04/05:30pm 15.5 16.8 14.2 92 0.7 CALM 0 0 0 0 1021.2 1021.2 0.8
04/05:00pm 16.3 17.7 14.5 89 1.0 CALM 0 0 0 0 1021.2 1021.2 0.8
04/04:30pm 16.3 16.1 14.7 90 0.9 NNW 9 15 5 8 1021.2 1021.2 0.8
04/04:00pm 16.3 16.3 14.3 88 1.1 WNW 7 17 4 9 1021.5 1021.5 0.6
04/03:30pm 18.3 17.8 14.8 80 2.0 SW 11 15 6 8 1021.2 1021.2 0.2
04/03:00pm 18.5 17.9 13.4 72 2.9 WSW 9 15 5 8 1021.1 1021.1 0.2
04/02:30pm 18.7 16.9 13.3 71 3.1 WNW 15 32 8 17 1021.0 1021.0 0.2
04/02:00pm 19.9 18.8 13.1 65 3.9 WNW 11 17 6 9 1020.9 1020.9 0.2
04/01:30pm 20.0 19.8 14.6 71 3.2 NW 9 22 5 12 1021.0 1021.0 0.2
04/01:00pm 19.4 18.7 14.4 73 2.9 NW 11 20 6 11 1021.3 1021.3 0.2
04/12:30pm 20.3 20.9 15.3 73 3.0 NW 6 11 3 6 1021.7 1021.7 0.0
04/12:00pm 18.8 18.6 14.7 77 2.4 NW 9 19 5 10 1022.1 1022.1 0.0
04/11:30am 19.6 20.2 15.3 76 2.5 N 6 11 3 6 1022.5 1022.5 0.0
04/11:00am 18.1 18.7 15.2 83 1.7 N 6 9 3 5 1022.9 1022.9 0.0
04/10:30am 17.9 18.5 15.2 84 1.6 NNE 6 9 3 5 1023.1 1023.1 0.0
04/10:00am 16.1 16.4 14.6 91 0.9 NNE 6 9 3 5 1023.2 1023.2 0.0
04/09:30am 14.7 14.8 14.5 99 0.1 NNE 7 11 4 6 1023.2 1023.2 0.0
04/09:00am 13.6 13.3 13.4 99 0.1 NNE 7 15 4 8 1023.0 1023.0 0.0
04/08:30am 12.6 12.2 12.4 99 0.1 NNE 6 9 3 5 1023.0 1023.0 0.0
04/08:00am 12.0 12.6 11.8 99 0.1 CALM 0 0 0 0 1022.9 1022.9 0.0
04/07:30am 11.7 12.2 11.5 99 0.1 CALM 0 6 0 3 1022.8 1022.8 0.0
04/07:00am 11.5 11.9 11.3 99 0.1 CALM 0 0 0 0 1022.6 1022.6 0.0
04/06:30am 11.8 11.2 11.6 99 0.1 NNE 6 7 3 4 1022.5 1022.5 0.0
04/06:00am 11.8 11.0 11.6 99 0.1 NNE 7 11 4 6 1022.4 1022.4 0.0
04/05:30am 11.7 10.8 11.5 99 0.1 NNE 7 11 4 6 1022.2 1022.2 0.0
04/05:00am 11.6 10.7 11.4 99 0.1 WNW 7 13 4 7 1022.1 1022.1 0.0
04/04:30am 11.3 10.9 11.1 99 0.1 WSW 4 9 2 5 1022.1 1022.1 0.0
04/04:00am 11.1 10.3 10.9 99 0.1 WSW 6 9 3 5 1022.3 1022.3 0.0
04/03:30am 11.5 10.6 11.3 99 0.1 WSW 7 9 4 5 1022.4 1022.4 0.0
04/03:00am 11.8 11.0 11.6 99 0.1 WSW 7 11 4 6 1022.5 1022.5 0.0
04/02:30am 11.8 11.2 11.6 99 0.1 WSW 6 9 3 5 1022.5 1022.5 0.0
04/02:00am 11.9 11.1 11.7 99 0.1 WSW 7 11 4 6 1022.8 1022.8 0.0
04/01:30am 11.7 12.2 11.5 99 0.1 CALM 0 0 0 0 1022.7 1022.7 0.0
04/01:00am 11.3 11.7 11.1 99 0.1 CALM 0 0 0 0 1022.9 1022.9 0.0
04/12:30am 11.4 11.8 11.2 99 0.1 CALM 0 0 0 0 1023.0 1023.0 0.0
04/12:00am 11.1 11.4 10.9 99 0.1 CALM 0 0 0 0 1023.1 1023.1 0.0
 
Date/Time
WST
Temp
°C
App
Temp
°C
Dew
Point
Rel
Hum
%
Delta-T
°C
Wind Press
QNH
hPa
Press
MSL
hPa
Rain
since 9 am
mm
Dir
 
Spd
km/h
Gust
km/h
Spd
kts
Gust
kts
03/11:30pm 11.2 11.5 11.0 99 0.1 CALM 0 0 0 0 1023.2 1023.2 0.0
03/11:00pm 11.5 11.9 11.3 99 0.1 CALM 0 0 0 0 1023.2 1023.2 0.0
03/10:30pm 11.8 12.3 11.5 98 0.2 CALM 0 0 0 0 1023.3 1023.3 0.0
03/10:00pm 12.0 12.5 11.7 98 0.2 CALM 0 0 0 0 1023.3 1023.3 0.0
03/09:30pm 12.3 12.9 11.8 97 0.3 CALM 0 0 0 0 1023.2 1023.2 0.0
03/09:00pm 12.5 13.1 12.0 97 0.3 CALM 0 0 0 0 1023.2 1023.2 0.0
03/08:30pm 13.2 14.0 12.7 97 0.3 CALM 0 0 0 0 1023.2 1023.2 0.0
03/08:00pm 13.8 14.8 13.3 97 0.3 CALM 0 0 0 0 1023.1 1023.1 0.0
03/07:30pm 14.1 15.2 13.5 96 0.3 CALM 0 0 0 0 1023.1 1023.1 0.0
03/07:00pm 14.8 16.1 14.0 95 0.4 CALM 0 0 0 0 1023.0 1023.0 0.0
03/06:30pm 15.3 16.6 14.2 93 0.6 CALM 0 0 0 0 1022.9 1022.9 0.0
03/06:00pm 16.3 17.7 14.5 89 1.0 CALM 0 0 0 0 1022.7 1022.7 0.0
03/05:30pm 17.7 18.9 14.8 83 1.7 WSW 2 7 1 4 1022.5 1022.5 0.0
03/05:00pm 18.5 18.7 14.8 79 2.1 WSW 7 11 4 6 1022.4 1022.4 0.0
03/04:30pm 19.3 19.1 14.6 74 2.7 W 9 17 5 9 1022.3 1022.3 0.0
03/04:00pm 19.9 19.8 14.9 73 2.9 W 9 17 5 9 1022.0 1022.0 0.0
03/03:30pm 20.4 19.8 14.5 69 3.4 WSW 11 17 6 9 1021.8 1021.8 0.0
03/03:00pm 20.9 20.3 14.5 67 3.7 W 11 22 6 12 1021.6 1021.6 0.0
03/02:30pm 21.6 21.6 15.2 67 3.8 WSW 9 19 5 10 1021.5 1021.5 0.0
03/02:00pm 20.1 20.3 14.7 71 3.1 WSW 7 15 4 8 1021.7 1021.7 0.0
03/01:30pm 21.1 22.2 15.6 71 3.3 S 4 7 2 4 1021.7 1021.7 0.0

Other Formats:

Comma delimited format used in spreadsheet applications
http://www.bom.gov.au/fwo/IDW60801/IDW60801.94608.axf

JavaScript Object Notation format (JSON) in row-major order
http://www.bom.gov.au/fwo/IDW60801/IDW60801.94608.json